Terminal Aerodrome Forecast
Issued by NWS

Home | Current Version | Previous Version | Text Only | Print | Product List | Glossary On
Versions: 1 2 3 4 5 6 7 8 9 10 11 12 13 14 15 16 17 18 19 20 21 22 23 24
000
FTUS43 KDLH 191700
TAFHYR
TAF
KHYR 191731Z 1918/2018 17014G22KT P6SM VCSH SCT035 OVC060
      TEMPO 1918/1922 3SM -SHRA BR OVC035
     FM200100 20006KT P6SM OVC040
     FM200600 VRB05KT 4SM BR SCT040
     FM201400 VRB05KT P6SM SCT030=

USA.gov is the U.S. government's official web portal to all federal, state and local government web resources and services.